createdAt,value
2019-05-01T00:02:19.195Z,2.45
2019-05-01T00:05:15.173Z,2.33
2019-05-01T00:07:42.928Z,2.35
2019-05-01T00:10:11.877Z,1.27
2019-05-01T00:12:39.476Z,2.77
2019-05-01T00:15:10.482Z,2.95
2019-05-01T00:17:40.025Z,1.12
2019-05-01T00:20:08.228Z,1.17
2019-05-01T00:22:36.537Z,1.95
2019-05-01T00:25:04.505Z,1.05
2019-05-01T00:27:32.194Z,1.55
2019-05-01T00:30:00.224Z,1.60
2019-05-01T00:32:27.886Z,0.98
2019-05-01T00:34:56.372Z,2.17
2019-05-01T00:37:24.689Z,1.50
2019-05-01T00:39:52.956Z,1.95
2019-05-01T00:42:21.023Z,1.27
2019-05-01T00:44:52.598Z,3.55
2019-05-01T00:47:20.622Z,1.05
2019-05-01T00:49:48.307Z,1.92
2019-05-01T00:52:16.261Z,1.05
2019-05-01T00:54:46.419Z,0.95
2019-05-01T00:57:29.695Z,0.93
2019-05-01T01:00:21.070Z,1.00
2019-05-01T01:02:51.404Z,1.70
2019-05-01T01:05:18.961Z,1.60
2019-05-01T01:07:46.580Z,1.50
2019-05-01T01:10:14.431Z,0.80
2019-05-01T01:12:42.181Z,1.25
2019-05-01T01:15:10.176Z,1.00
2019-05-01T01:17:37.939Z,1.35
2019-05-01T01:20:06.150Z,1.27
2019-05-01T01:22:34.232Z,2.30
2019-05-01T01:25:07.100Z,1.05
2019-05-01T01:27:35.114Z,1.62
2019-05-01T01:30:03.734Z,1.02
2019-05-01T01:32:32.061Z,1.72
2019-05-01T01:35:00.885Z,2.25
2019-05-01T01:37:29.773Z,2.58
2019-05-01T01:39:57.926Z,1.62
2019-05-01T01:42:26.819Z,1.07
2019-05-01T01:45:26.645Z,1.00
2019-05-01T01:48:11.649Z,0.95
2019-05-01T01:50:42.560Z,0.90
2019-05-01T01:53:12.752Z,0.72
2019-05-01T01:55:45.601Z,3.58
2019-05-01T01:58:15.712Z,0.82
2019-05-01T02:00:53.799Z,1.40
2019-05-01T02:03:23.299Z,0.98
2019-05-01T02:05:52.388Z,2.27
2019-05-01T02:08:20.474Z,1.02
2019-05-01T02:10:48.803Z,1.05
2019-05-01T02:13:17.089Z,1.07
2019-05-01T02:15:45.093Z,2.00
2019-05-01T02:18:13.285Z,1.05
2019-05-01T02:20:41.511Z,1.22
2019-05-01T02:23:09.296Z,1.10
2019-05-01T02:25:39.616Z,1.27
2019-05-01T02:28:32.855Z,1.42
2019-05-01T02:31:27.143Z,1.30
2019-05-01T02:33:43.692Z,1.25
2019-05-01T02:36:14.371Z,0.72
2019-05-01T02:38:43.540Z,1.30
2019-05-01T02:41:15.797Z,0.95
2019-05-01T02:43:45.839Z,1.10
2019-05-01T02:46:18.310Z,1.02
2019-05-01T02:48:54.256Z,1.55
2019-05-01T02:51:26.366Z,1.47
2019-05-01T02:53:54.972Z,1.20
2019-05-01T02:56:47.091Z,0.90
2019-05-01T02:59:15.456Z,0.65
2019-05-01T03:01:47.886Z,1.12
2019-05-01T03:04:15.523Z,1.45
2019-05-01T03:06:44.964Z,2.75
2019-05-01T03:09:13.164Z,1.30
2019-05-01T03:11:43.887Z,1.60
2019-05-01T03:14:16.966Z,1.15
2019-05-01T03:16:47.479Z,1.12
2019-05-01T03:19:37.837Z,1.45
2019-05-01T03:22:11.758Z,2.30
2019-05-01T03:24:40.195Z,1.35
2019-05-01T03:27:09.050Z,3.30
2019-05-01T03:29:36.958Z,2.05
2019-05-01T03:32:17.323Z,1.90
2019-05-01T03:34:35.492Z,2.05
2019-05-01T03:37:03.673Z,2.20
2019-05-01T03:39:31.508Z,1.67
2019-05-01T03:42:00.265Z,1.27
2019-05-01T03:44:28.521Z,1.98
2019-05-01T03:46:57.054Z,5.05
2019-05-01T03:49:25.479Z,1.52
2019-05-01T03:51:53.363Z,2.12
2019-05-01T03:54:21.228Z,3.00
2019-05-01T03:56:49.206Z,1.57
2019-05-01T03:59:22.260Z,2.00
2019-05-01T04:02:09.914Z,4.40
2019-05-01T04:04:38.871Z,3.15
2019-05-01T04:07:06.837Z,2.55
2019-05-01T04:09:36.396Z,3.27
2019-05-01T04:12:04.233Z,1.70
2019-05-01T04:14:32.401Z,3.72
2019-05-01T04:17:08.956Z,2.60
2019-05-01T04:19:36.671Z,8.93
2019-05-01T04:22:10.532Z,2.10
2019-05-01T04:24:39.319Z,2.65
2019-05-01T04:27:09.220Z,1.87
2019-05-01T04:30:01.929Z,2.60
2019-05-01T04:32:50.067Z,3.87
2019-05-01T04:35:21.752Z,2.15
2019-05-01T04:37:50.707Z,3.00
2019-05-01T04:40:20.143Z,3.52
2019-05-01T04:42:48.385Z,1.50
2019-05-01T04:45:17.555Z,2.75
2019-05-01T04:47:50.180Z,3.98
2019-05-01T04:50:18.399Z,2.37
2019-05-01T04:52:47.371Z,1.90
2019-05-01T04:55:15.789Z,2.30
2019-05-01T04:57:45.290Z,1.70
2019-05-01T05:00:13.312Z,3.52
2019-05-01T05:03:05.253Z,4.90
2019-05-01T05:05:34.727Z,8.48
2019-05-01T05:08:03.026Z,3.65
2019-05-01T05:10:31.012Z,5.85
2019-05-01T05:13:12.799Z,4.33
2019-05-01T05:16:00.458Z,3.45
2019-05-01T05:18:29.812Z,4.62
2019-05-01T05:21:00.030Z,3.40
2019-05-01T05:23:27.709Z,3.60
2019-05-01T05:26:03.711Z,2.95
2019-05-01T05:28:33.701Z,2.60
2019-05-01T05:31:03.569Z,1.82
2019-05-01T05:33:34.782Z,3.25
2019-05-01T05:36:05.389Z,6.47
2019-05-01T05:39:02.659Z,2.58
2019-05-01T05:41:38.010Z,2.35
2019-05-01T05:44:06.567Z,2.02
2019-05-01T05:46:35.237Z,1.62
2019-05-01T05:49:04.167Z,1.60
2019-05-01T05:52:04.087Z,2.62
2019-05-01T05:54:57.619Z,5.75
2019-05-01T05:57:50.776Z,8.83
2019-05-01T06:00:39.443Z,3.60
2019-05-01T06:03:31.321Z,2.92
2019-05-01T06:06:46.403Z,2.02
2019-05-01T06:09:37.988Z,2.15
2019-05-01T06:12:19.135Z,2.08
2019-05-01T06:15:02.418Z,4.62
2019-05-01T06:17:50.838Z,6.22
2019-05-01T06:20:45.235Z,2.05
2019-05-01T06:23:37.111Z,1.75
2019-05-01T06:26:39.142Z,2.17
2019-05-01T06:29:06.398Z,1.42
2019-05-01T06:31:40.562Z,1.40
2019-05-01T06:34:08.491Z,1.30
2019-05-01T06:36:38.972Z,1.50
2019-05-01T06:39:11.740Z,1.10
2019-05-01T06:41:43.304Z,3.27
2019-05-01T06:44:33.498Z,1.50
2019-05-01T06:47:26.234Z,2.05
2019-05-01T06:50:20.272Z,1.65
2019-05-01T06:52:51.301Z,1.70
2019-05-01T06:55:28.721Z,1.32
2019-05-01T06:58:01.053Z,1.30
2019-05-01T07:00:39.105Z,1.27
2019-05-01T07:03:11.710Z,1.95
2019-05-01T07:05:40.129Z,1.27
2019-05-01T07:08:08.354Z,1.55
2019-05-01T07:10:43.503Z,3.87
2019-05-01T07:13:06.613Z,2.02
2019-05-01T07:15:34.599Z,1.22
2019-05-01T07:18:02.883Z,2.30
2019-05-01T07:20:53.284Z,1.47
2019-05-01T07:23:22.839Z,1.00
2019-05-01T07:25:50.984Z,1.40
2019-05-01T07:28:19.872Z,1.77
2019-05-01T07:31:11.576Z,2.25
2019-05-01T07:33:42.172Z,1.22
2019-05-01T07:36:15.294Z,7.60
2019-05-01T07:38:45.118Z,1.75
2019-05-01T07:41:13.857Z,27.20
2019-05-01T07:44:04.400Z,1.55
2019-05-01T07:46:54.292Z,1.82
2019-05-01T07:49:25.761Z,1.80
2019-05-01T07:51:53.852Z,1.30
2019-05-01T07:54:22.757Z,1.42
2019-05-01T07:56:51.859Z,2.08
2019-05-01T07:59:22.883Z,1.12
2019-05-01T08:01:59.471Z,1.60
2019-05-01T08:04:36.826Z,1.25
2019-05-01T08:06:59.290Z,1.00
2019-05-01T08:09:27.219Z,1.77
2019-05-01T08:11:54.838Z,1.60
2019-05-01T08:14:23.771Z,1.57
2019-05-01T08:16:51.568Z,1.10
2019-05-01T08:19:39.511Z,0.73
2019-05-01T08:22:14.614Z,13.60
2019-05-01T08:24:42.380Z,1.47
2019-05-01T08:27:23.533Z,2.30
2019-05-01T08:30:20.016Z,1.17
2019-05-01T08:33:09.889Z,1.42
2019-05-01T08:35:38.942Z,6.42
2019-05-01T08:38:06.672Z,3.65
2019-05-01T08:40:37.254Z,5.05
2019-05-01T08:43:05.025Z,11.97
2019-05-01T08:45:57.938Z,1.40
2019-05-01T08:48:35.921Z,2.35
2019-05-01T08:51:03.307Z,1.40
2019-05-01T08:53:31.137Z,3.17
2019-05-01T08:55:59.017Z,5.83
2019-05-01T08:58:26.816Z,1.30
2019-05-01T09:00:54.842Z,1.60
2019-05-01T09:03:22.606Z,1.65
2019-05-01T09:05:52.188Z,1.63
2019-05-01T09:08:20.355Z,1.80
2019-05-01T09:10:49.732Z,2.30
2019-05-01T09:13:23.828Z,3.77
2019-05-01T09:15:50.511Z,3.65
2019-05-01T09:18:18.992Z,2.05
2019-05-01T09:20:49.238Z,5.90
2019-05-01T09:23:17.112Z,5.58
2019-05-01T09:25:53.827Z,2.40
2019-05-01T09:28:26.540Z,3.40
2019-05-01T09:31:05.833Z,1.20
2019-05-01T09:33:33.963Z,0.93
2019-05-01T09:36:02.653Z,1.30
2019-05-01T09:38:34.179Z,4.00
2019-05-01T09:41:03.448Z,1.50
2019-05-01T09:43:35.749Z,1.50
2019-05-01T09:46:02.177Z,6.93
2019-05-01T09:48:32.331Z,0.90
2019-05-01T09:51:07.919Z,1.53
2019-05-01T09:54:00.145Z,4.60
2019-05-01T09:56:28.431Z,1.30
2019-05-01T09:58:58.439Z,3.30
2019-05-01T10:01:31.656Z,1.57
2019-05-01T10:03:57.801Z,1.90
2019-05-01T10:06:25.704Z,2.23
2019-05-01T10:08:53.733Z,1.20
2019-05-01T10:11:21.371Z,2.60
2019-05-01T10:13:49.335Z,1.20
2019-05-01T10:16:18.989Z,1.33
2019-05-01T10:18:46.624Z,1.90
2019-05-01T10:21:14.527Z,1.20
2019-05-01T10:23:42.371Z,2.77
2019-05-01T10:26:12.437Z,5.03
2019-05-01T10:29:02.660Z,2.40
2019-05-01T10:31:50.019Z,2.33
2019-05-01T10:34:33.969Z,1.87
2019-05-01T10:37:01.971Z,1.30
2019-05-01T10:39:31.859Z,7.93
2019-05-01T10:41:59.720Z,2.93
2019-05-01T10:44:27.747Z,1.00
2019-05-01T10:46:55.414Z,1.40
2019-05-01T10:49:23.332Z,2.73
2019-05-01T10:51:51.184Z,1.97
2019-05-01T10:54:21.120Z,1.30
2019-05-01T10:56:48.991Z,2.00
2019-05-01T10:59:16.808Z,1.20
2019-05-01T11:01:51.541Z,3.60
2019-05-01T11:04:19.490Z,2.03
2019-05-01T11:06:47.400Z,1.33
2019-05-01T11:09:15.083Z,1.30
2019-05-01T11:11:42.786Z,1.60
2019-05-01T11:14:10.618Z,1.53
2019-05-01T11:16:38.408Z,1.47
2019-05-01T11:19:07.136Z,2.00
2019-05-01T11:21:35.099Z,2.60
2019-05-01T11:24:02.826Z,5.33
2019-05-01T11:26:30.487Z,1.57
2019-05-01T11:28:58.287Z,1.40
2019-05-01T11:31:33.254Z,1.57
2019-05-01T11:34:09.445Z,1.60
2019-05-01T11:37:12.247Z,1.73
2019-05-01T11:39:52.193Z,2.37
2019-05-01T11:42:20.835Z,1.40
2019-05-01T11:44:48.495Z,1.73
2019-05-01T11:47:17.592Z,1.03
2019-05-01T11:49:46.105Z,1.37
2019-05-01T11:52:13.704Z,1.20
2019-05-01T11:54:41.502Z,1.90
2019-05-01T11:57:09.455Z,1.97
2019-05-01T11:59:37.335Z,1.57
2019-05-01T12:02:05.247Z,1.30
2019-05-01T12:04:33.036Z,1.90
2019-05-01T12:07:00.885Z,1.90
2019-05-01T12:09:28.470Z,0.93
2019-05-01T12:11:59.544Z,1.37
2019-05-01T12:14:27.354Z,1.80
2019-05-01T12:17:04.609Z,2.70
2019-05-01T12:19:35.537Z,1.70
2019-05-01T12:22:03.296Z,1.60
2019-05-01T12:24:31.145Z,2.17
2019-05-01T12:26:58.996Z,3.77
2019-05-01T12:29:26.830Z,2.13
2019-05-01T12:31:54.754Z,2.00
2019-05-01T12:34:22.577Z,1.53
2019-05-01T12:36:52.340Z,1.70
2019-05-01T12:39:20.007Z,1.70
2019-05-01T12:41:54.005Z,2.10
2019-05-01T12:44:21.857Z,2.13
2019-05-01T12:47:15.771Z,2.43
2019-05-01T12:49:45.318Z,2.77
2019-05-01T12:52:20.935Z,1.73
2019-05-01T12:54:57.816Z,1.60
2019-05-01T12:57:25.965Z,1.40
2019-05-01T12:59:53.554Z,1.73
2019-05-01T13:02:21.479Z,2.20
2019-05-01T13:04:49.558Z,4.20
2019-05-01T13:07:18.690Z,1.73
2019-05-01T13:09:46.504Z,1.50
2019-05-01T13:12:14.244Z,1.97
2019-05-01T13:14:42.112Z,5.20
2019-05-01T13:17:09.992Z,1.93
2019-05-01T13:19:37.815Z,1.63
2019-05-01T13:22:06.546Z,2.57
2019-05-01T13:24:37.943Z,2.40
2019-05-01T13:27:15.499Z,2.13
2019-05-01T13:29:48.283Z,1.50
2019-05-01T13:32:34.241Z,1.70
2019-05-01T13:35:01.903Z,1.40
2019-05-01T13:37:29.569Z,2.10
2019-05-01T13:39:57.374Z,1.70
2019-05-01T13:42:27.122Z,2.20
2019-05-01T13:44:55.044Z,2.30
2019-05-01T13:47:22.889Z,1.80
2019-05-01T13:49:50.774Z,2.00
2019-05-01T13:52:18.866Z,2.60
2019-05-01T13:54:46.863Z,4.73
2019-05-01T13:57:14.754Z,2.10
2019-05-01T13:59:42.592Z,3.47
2019-05-01T14:02:10.377Z,5.50
2019-05-01T14:04:38.487Z,2.03
2019-05-01T14:07:16.230Z,1.50
2019-05-01T14:09:36.267Z,1.60
2019-05-01T14:12:04.021Z,1.87
2019-05-01T14:14:31.590Z,2.33
2019-05-01T14:16:59.299Z,2.87
2019-05-01T14:19:29.324Z,2.10
2019-05-01T14:22:20.660Z,1.77
2019-05-01T14:24:53.547Z,1.30
2019-05-01T14:27:21.451Z,1.40
2019-05-01T14:29:50.198Z,3.13
2019-05-01T14:32:18.392Z,1.50
2019-05-01T14:34:46.349Z,1.33
2019-05-01T14:37:13.963Z,1.30
2019-05-01T14:39:42.917Z,5.08
2019-05-01T14:42:10.694Z,1.50
2019-05-01T14:44:38.662Z,1.57
2019-05-01T14:47:07.032Z,1.43
2019-05-01T14:49:34.765Z,1.47
2019-05-01T14:52:02.715Z,1.50
2019-05-01T14:54:37.119Z,2.40
2019-05-01T14:57:05.047Z,1.85
2019-05-01T14:59:32.823Z,1.27
2019-05-01T15:02:00.614Z,1.57
2019-05-01T15:04:28.567Z,2.27
2019-05-01T15:06:56.394Z,2.07
2019-05-01T15:09:24.285Z,1.30
2019-05-01T15:11:52.118Z,2.37
2019-05-01T15:14:41.852Z,1.50
2019-05-01T15:17:29.522Z,2.47
2019-05-01T15:20:01.072Z,1.55
2019-05-01T15:22:33.181Z,2.30
2019-05-01T15:25:01.947Z,1.62
2019-05-01T15:27:31.706Z,1.65
2019-05-01T15:30:00.546Z,1.30
2019-05-01T15:32:28.126Z,1.25
2019-05-01T15:34:56.281Z,1.40
2019-05-01T15:37:26.083Z,1.20
2019-05-01T15:40:01.362Z,1.87
2019-05-01T15:42:57.827Z,2.15
2019-05-01T15:45:25.668Z,2.33
2019-05-01T15:47:53.243Z,2.62
2019-05-01T15:50:20.852Z,1.25
2019-05-01T15:52:48.518Z,1.90
2019-05-01T15:55:16.358Z,1.95
2019-05-01T15:57:45.004Z,1.70
2019-05-01T16:00:16.132Z,2.10
2019-05-01T16:02:43.699Z,1.50
2019-05-01T16:05:11.469Z,2.27
2019-05-01T16:07:44.139Z,2.08
2019-05-01T16:10:16.105Z,2.20
2019-05-01T16:12:56.163Z,1.67
2019-05-01T16:15:41.789Z,1.90
2019-05-01T16:18:13.080Z,1.90
2019-05-01T16:20:40.672Z,1.77
2019-05-01T16:23:09.633Z,2.00
2019-05-01T16:25:37.393Z,1.50
2019-05-01T16:28:05.335Z,1.62
2019-05-01T16:30:33.234Z,1.60
2019-05-01T16:33:01.070Z,1.82
2019-05-01T16:35:29.686Z,3.42
2019-05-01T16:38:01.514Z,1.98
2019-05-01T16:40:51.124Z,1.80
2019-05-01T16:43:18.784Z,2.72
2019-05-01T16:45:46.701Z,1.67
2019-05-01T16:48:14.504Z,2.70
2019-05-01T16:50:42.086Z,1.77
2019-05-01T16:53:10.046Z,2.15
2019-05-01T16:55:37.784Z,3.90
2019-05-01T16:58:08.599Z,2.15
2019-05-01T17:00:55.157Z,2.35
2019-05-01T17:03:27.329Z,2.42
2019-05-01T17:06:02.205Z,2.95
2019-05-01T17:08:52.758Z,2.92
2019-05-01T17:11:25.881Z,5.92
2019-05-01T17:13:53.765Z,7.05
2019-05-01T17:16:21.855Z,3.80
2019-05-01T17:18:49.436Z,4.00
2019-05-01T17:21:17.381Z,3.85
2019-05-01T17:23:45.212Z,3.77
2019-05-01T17:26:13.088Z,4.47
2019-05-01T17:28:40.961Z,3.40
2019-05-01T17:31:08.791Z,5.03
2019-05-01T17:33:36.703Z,3.58
2019-05-01T17:36:04.630Z,3.22
2019-05-01T17:38:32.439Z,3.30
2019-05-01T17:41:00.602Z,4.72
2019-05-01T17:43:28.199Z,3.17
2019-05-01T17:45:55.856Z,3.05
2019-05-01T17:48:28.979Z,3.58
2019-05-01T17:50:55.070Z,3.65
2019-05-01T17:53:24.555Z,3.40
2019-05-01T17:55:52.395Z,4.50
2019-05-01T17:58:20.658Z,4.15
2019-05-01T18:01:27.965Z,4.00
2019-05-01T18:04:04.619Z,3.75
2019-05-01T18:06:34.772Z,3.77
2019-05-01T18:09:08.239Z,4.20
2019-05-01T18:11:33.853Z,4.08
2019-05-01T18:14:01.474Z,4.30
2019-05-01T18:16:29.832Z,4.70
2019-05-01T18:18:58.086Z,3.62
2019-05-01T18:21:25.888Z,4.10
2019-05-01T18:24:12.310Z,3.80
2019-05-01T18:26:59.580Z,4.35
2019-05-01T18:29:55.763Z,4.22
2019-05-01T18:32:33.007Z,5.83
2019-05-01T18:35:00.571Z,4.15
2019-05-01T18:37:35.143Z,4.50
2019-05-01T18:40:05.184Z,4.30
2019-05-01T18:42:32.893Z,5.45
2019-05-01T18:45:00.657Z,4.83
2019-05-01T18:47:31.883Z,4.85
2019-05-01T18:49:59.796Z,5.05
2019-05-01T18:52:27.616Z,6.17
2019-05-01T18:54:55.391Z,5.55
2019-05-01T18:57:23.944Z,5.75
2019-05-01T18:59:52.804Z,5.12
2019-05-01T19:02:24.926Z,4.37
2019-05-01T19:04:51.851Z,4.80
2019-05-01T19:07:19.792Z,5.15
2019-05-01T19:09:47.370Z,5.67
2019-05-01T19:12:15.251Z,5.42
2019-05-01T19:14:42.919Z,5.05
2019-05-01T19:17:10.787Z,5.33
2019-05-01T19:19:38.684Z,6.03
2019-05-01T19:22:07.548Z,5.50
2019-05-01T19:24:37.872Z,5.50
2019-05-01T19:27:05.210Z,5.20
2019-05-01T19:29:33.905Z,5.05
2019-05-01T19:32:01.776Z,5.58
2019-05-01T19:34:29.559Z,5.12
2019-05-01T19:36:57.395Z,4.92
2019-05-01T19:39:25.276Z,4.30
2019-05-01T19:41:54.672Z,5.87
2019-05-01T19:44:22.631Z,4.50
2019-05-01T19:46:50.674Z,5.35
2019-05-01T19:49:18.907Z,5.92
2019-05-01T19:51:47.164Z,5.00
2019-05-01T19:54:16.579Z,5.58
2019-05-01T19:56:44.481Z,7.15
2019-05-01T19:59:13.557Z,5.75
2019-05-01T20:01:44.657Z,5.20
2019-05-01T20:04:13.238Z,4.70
2019-05-01T20:06:41.155Z,5.30
2019-05-01T20:09:09.110Z,5.67
2019-05-01T20:11:37.304Z,5.30
2019-05-01T20:14:06.228Z,4.58
2019-05-01T20:16:34.701Z,4.55
2019-05-01T20:19:02.679Z,4.40
2019-05-01T20:21:30.275Z,4.53
2019-05-01T20:23:58.250Z,4.33
2019-05-01T20:26:26.903Z,4.50
2019-05-01T20:28:57.501Z,5.45
2019-05-01T20:31:28.303Z,4.95
2019-05-01T20:33:57.509Z,5.35
2019-05-01T20:36:25.444Z,5.83
2019-05-01T20:38:53.055Z,5.42
2019-05-01T20:41:24.784Z,6.00
2019-05-01T20:43:52.336Z,5.80
2019-05-01T20:46:21.368Z,6.12
2019-05-01T20:48:49.791Z,6.42
2019-05-01T20:51:20.200Z,6.10
2019-05-01T20:53:47.814Z,6.85
2019-05-01T20:56:29.802Z,6.22
2019-05-01T20:59:02.540Z,6.28
2019-05-01T21:01:29.381Z,7.83
2019-05-01T21:04:11.551Z,8.30
2019-05-01T21:07:09.299Z,8.80
2019-05-01T21:09:47.211Z,8.63
2019-05-01T21:12:08.986Z,8.90
2019-05-01T21:14:36.741Z,8.83
2019-05-01T21:17:04.609Z,10.35
2019-05-01T21:19:33.551Z,9.35
2019-05-01T21:22:04.003Z,10.00
2019-05-01T21:24:34.088Z,10.78
2019-05-01T21:27:03.478Z,11.83
2019-05-01T21:29:31.860Z,12.23
2019-05-01T21:32:00.813Z,11.68
2019-05-01T21:34:28.677Z,13.15
2019-05-01T21:36:56.549Z,12.00
2019-05-01T21:39:26.754Z,11.80
2019-05-01T21:41:53.920Z,13.83
2019-05-01T21:44:23.378Z,12.15
2019-05-01T21:46:53.449Z,13.22
2019-05-01T21:49:22.830Z,13.58
2019-05-01T21:51:52.997Z,14.45
2019-05-01T21:54:23.862Z,13.25
2019-05-01T21:56:51.755Z,12.70
2019-05-01T21:59:20.013Z,14.40
2019-05-01T22:01:48.014Z,12.88
2019-05-01T22:04:15.766Z,13.80
2019-05-01T22:06:46.667Z,12.03
2019-05-01T22:09:17.306Z,12.82
2019-05-01T22:11:45.517Z,12.98
2019-05-01T22:14:20.594Z,11.10
2019-05-01T22:16:53.192Z,13.60
2019-05-01T22:19:19.613Z,11.22
2019-05-01T22:22:06.796Z,10.58
2019-05-01T22:24:52.554Z,11.33
2019-05-01T22:27:23.896Z,9.75
2019-05-01T22:30:05.801Z,11.15
2019-05-01T22:32:46.202Z,9.18
2019-05-01T22:35:24.726Z,9.78
2019-05-01T22:37:53.927Z,9.20
2019-05-01T22:40:48.118Z,9.85
2019-05-01T22:43:16.022Z,11.88
2019-05-01T22:45:47.132Z,8.98
2019-05-01T22:48:17.734Z,8.75
2019-05-01T22:51:01.563Z,10.10
2019-05-01T22:53:29.424Z,8.55
2019-05-01T22:56:02.125Z,11.00
2019-05-01T22:58:28.014Z,9.20
2019-05-01T23:00:56.980Z,9.45
2019-05-01T23:03:40.807Z,10.15
2019-05-01T23:06:07.697Z,9.90
2019-05-01T23:08:35.306Z,9.70
2019-05-01T23:11:03.127Z,9.10
2019-05-01T23:13:31.159Z,7.85
2019-05-01T23:15:59.251Z,8.00
2019-05-01T23:18:26.974Z,10.10
2019-05-01T23:20:54.826Z,8.90
2019-05-01T23:23:22.688Z,9.40
2019-05-01T23:25:50.537Z,9.05
2019-05-01T23:28:18.390Z,10.20
2019-05-01T23:30:46.215Z,9.35
2019-05-01T23:33:14.123Z,9.83
2019-05-01T23:35:41.774Z,9.15
2019-05-01T23:38:11.902Z,9.68
2019-05-01T23:40:40.837Z,8.85
2019-05-01T23:43:12.164Z,7.92
2019-05-01T23:45:58.372Z,8.85
2019-05-01T23:48:26.277Z,8.03
2019-05-01T23:50:54.159Z,7.58
2019-05-01T23:53:22.280Z,8.00
2019-05-01T23:55:49.937Z,9.20
2019-05-01T23:58:17.820Z,9.80
